Time,TemperatureF,DewpointF,PressureIn,WindDirection,WindDirectionDegrees,WindSpeedMPH,WindSpeedGustMPH,Humidity,HourlyPrecipIn,Conditions,Clouds,dailyrainin,SoftwareType,DateUTC
2013-03-28 00:03:00,56.6,46.0,30.10,South,184,4.0,7.0,69,0.00,,,0.00,weatherlink.com 1.10,2013-03-28 05:03:00,
2013-03-28 00:18:00,56.6,46.0,30.09,SSW,194,6.0,8.0,69,0.00,,,0.00,weatherlink.com 1.10,2013-03-28 05:18:00,
2013-03-28 00:33:00,56.5,47.0,30.09,SSE,168,3.0,8.0,71,0.00,,,0.00,weatherlink.com 1.10,2013-03-28 05:33:00,
2013-03-28 00:48:00,56.4,47.0,30.09,South,182,4.0,8.0,71,0.00,,,0.00,weatherlink.com 1.10,2013-03-28 05:48:00,
2013-03-28 01:03:00,56.2,47.0,30.09,SSW,202,3.0,9.0,72,0.00,,,0.00,weatherlink.com 1.10,2013-03-28 06:03:00,
2013-03-28 01:18:00,56.0,47.0,30.09,SSW,196,3.0,6.0,73,0.00,,,0.00,weatherlink.com 1.10,2013-03-28 06:18:00,
2013-03-28 01:33:00,55.8,48.0,30.09,South,173,3.0,9.0,74,0.00,,,0.00,weatherlink.com 1.10,2013-03-28 06:33:00,
2013-03-28 01:48:00,55.6,48.0,30.08,South,184,3.0,7.0,75,0.00,,,0.00,weatherlink.com 1.10,2013-03-28 06:48:00,
2013-03-28 02:03:00,55.5,48.0,30.08,South,186,2.0,7.0,76,0.00,,,0.00,weatherlink.com 1.10,2013-03-28 07:03:00,
2013-03-28 02:18:00,55.5,48.0,30.08,SSW,205,3.0,9.0,76,0.00,,,0.00,weatherlink.com 1.10,2013-03-28 07:18:00,
2013-03-28 02:33:00,55.4,48.0,30.08,South,190,5.0,7.0,77,0.00,,,0.00,weatherlink.com 1.10,2013-03-28 07:33:00,
2013-03-28 02:48:00,55.3,49.0,30.07,SSW,212,3.0,8.0,78,0.00,,,0.00,weatherlink.com 1.10,2013-03-28 07:48:00,
2013-03-28 03:03:00,55.2,49.0,30.06,South,172,2.0,7.0,79,0.00,,,0.00,weatherlink.com 1.10,2013-03-28 08:03:00,
2013-03-28 03:18:00,54.9,49.0,30.06,SSW,194,3.0,7.0,79,0.00,,,0.00,weatherlink.com 1.10,2013-03-28 08:18:00,
2013-03-28 03:33:00,54.3,48.0,30.05,SSW,194,0.0,4.0,80,0.00,,,0.00,weatherlink.com 1.10,2013-03-28 08:33:00,
2013-03-28 03:48:00,53.6,48.0,30.05,SSW,194,0.0,0.0,81,0.00,,,0.00,weatherlink.com 1.10,2013-03-28 08:48:00,
2013-03-28 04:03:00,53.2,48.0,30.04,SSW,194,0.0,2.0,82,0.00,,,0.00,weatherlink.com 1.10,2013-03-28 09:03:00,
2013-03-28 04:18:00,52.2,48.0,30.05,SSW,194,0.0,0.0,84,0.00,,,0.00,weatherlink.com 1.10,2013-03-28 09:18:00,
2013-03-28 04:33:00,51.4,47.0,30.05,SSW,194,0.0,0.0,86,0.00,,,0.00,weatherlink.com 1.10,2013-03-28 09:33:00,
2013-03-28 04:48:00,51.0,47.0,30.05,SSW,194,0.0,0.0,87,0.00,,,0.00,weatherlink.com 1.10,2013-03-28 09:48:00,
2013-03-28 05:03:00,50.5,47.0,30.05,SSW,194,0.0,0.0,88,0.00,,,0.00,weatherlink.com 1.10,2013-03-28 10:03:00,
2013-03-28 05:18:00,50.4,47.0,30.06,SSW,194,0.0,0.0,89,0.00,,,0.00,weatherlink.com 1.10,2013-03-28 10:18:00,
2013-03-28 05:33:00,50.4,48.0,30.06,SSW,194,0.0,0.0,90,0.00,,,0.00,weatherlink.com 1.10,2013-03-28 10:33:00,
2013-03-28 05:48:00,50.3,48.0,30.06,SSW,194,0.0,0.0,90,0.00,,,0.00,weatherlink.com 1.10,2013-03-28 10:48:00,
2013-03-28 06:03:00,50.0,47.0,30.07,SSW,194,0.0,0.0,90,0.00,,,0.00,weatherlink.com 1.10,2013-03-28 11:03:00,
2013-03-28 06:18:00,50.4,48.0,30.07,SSW,194,0.0,0.0,91,0.00,,,0.00,weatherlink.com 1.10,2013-03-28 11:18:00,
2013-03-28 06:33:00,51.2,49.0,30.07,SSW,194,1.0,2.0,91,0.00,,,0.00,weatherlink.com 1.10,2013-03-28 11:33:00,
2013-03-28 06:49:00,51.6,49.0,30.07,SSW,194,0.0,1.0,90,0.00,,,0.00,weatherlink.com 1.10,2013-03-28 11:49:00,
2013-03-28 07:04:00,52.4,50.0,30.08,SSW,194,0.0,1.0,90,0.00,,,0.00,weatherlink.com 1.10,2013-03-28 12:04:00,
2013-03-28 07:19:00,53.6,50.0,30.08,SSW,194,0.0,2.0,88,0.00,,,0.00,weatherlink.com 1.10,2013-03-28 12:19:00,
2013-03-28 07:34:00,54.9,51.0,30.08,SSW,194,0.0,4.0,87,0.00,,,0.00,weatherlink.com 1.10,2013-03-28 12:34:00,
2013-03-28 07:49:00,57.3,53.0,30.09,South,190,5.0,6.0,84,0.00,,,0.00,weatherlink.com 1.10,2013-03-28 12:49:00,
2013-03-28 08:04:00,58.3,53.0,30.09,South,179,6.0,10.0,82,0.00,,,0.00,weatherlink.com 1.10,2013-03-28 13:04:00,
2013-03-28 08:19:00,58.8,53.0,30.09,South,179,5.0,10.0,81,0.00,,,0.00,weatherlink.com 1.10,2013-03-28 13:19:00,
2013-03-28 08:34:00,59.2,53.0,30.09,South,185,4.0,13.0,81,0.00,,,0.00,weatherlink.com 1.10,2013-03-28 13:34:00,
2013-03-28 08:50:00,59.6,53.0,30.10,SSW,211,3.0,8.0,80,0.00,,,0.00,weatherlink.com 1.10,2013-03-28 13:50:00,
2013-03-28 09:04:00,60.0,53.0,30.09,SSE,165,3.0,6.0,79,0.00,,,0.00,weatherlink.com 1.10,2013-03-28 14:04:00,
2013-03-28 09:19:00,60.1,54.0,30.09,South,169,5.0,7.0,79,0.00,,,0.00,weatherlink.com 1.10,2013-03-28 14:19:00,
2013-03-28 09:34:00,60.5,54.0,30.10,SE,143,7.0,8.0,79,0.00,,,0.00,weatherlink.com 1.10,2013-03-28 14:34:00,
2013-03-28 09:49:00,61.3,54.0,30.10,South,186,5.0,7.0,78,0.00,,,0.00,weatherlink.com 1.10,2013-03-28 14:49:00,
2013-03-28 10:04:00,62.1,55.0,30.10,South,178,5.0,10.0,77,0.00,,,0.00,weatherlink.com 1.10,2013-03-28 15:04:00,
2013-03-28 10:19:00,62.4,55.0,30.10,South,178,7.0,13.0,76,0.00,,,0.00,weatherlink.com 1.10,2013-03-28 15:19:00,
2013-03-28 10:34:00,63.1,55.0,30.10,South,180,5.0,13.0,75,0.00,,,0.00,weatherlink.com 1.10,2013-03-28 15:34:00,
2013-03-28 10:49:00,64.0,55.0,30.10,South,173,9.0,11.0,73,0.00,,,0.00,weatherlink.com 1.10,2013-03-28 15:49:00,
2013-03-28 11:04:00,64.0,55.0,30.10,SW,228,10.0,14.0,73,0.00,,,0.00,weatherlink.com 1.10,2013-03-28 16:04:00,
2013-03-28 11:19:00,64.5,55.0,30.11,SSE,167,7.0,16.0,72,0.00,,,0.00,weatherlink.com 1.10,2013-03-28 16:19:00,
2013-03-28 11:34:00,65.1,56.0,30.11,SSW,207,7.0,12.0,72,0.00,,,0.00,weatherlink.com 1.10,2013-03-28 16:34:00,
2013-03-28 11:49:00,65.6,56.0,30.10,SSW,202,7.0,13.0,71,0.00,,,0.00,weatherlink.com 1.10,2013-03-28 16:49:00,
2013-03-28 12:04:00,66.2,56.0,30.10,SSW,198,8.0,15.0,69,0.00,,,0.00,weatherlink.com 1.10,2013-03-28 17:04:00,
2013-03-28 12:19:00,67.4,56.0,30.10,South,182,7.0,16.0,67,0.00,,,0.00,weatherlink.com 1.10,2013-03-28 17:19:00,
2013-03-28 12:34:00,67.2,56.0,30.10,SSW,195,10.0,14.0,68,0.00,,,0.00,weatherlink.com 1.10,2013-03-28 17:34:00,
2013-03-28 12:49:00,67.2,56.0,30.09,South,181,10.0,16.0,68,0.00,,,0.00,weatherlink.com 1.10,2013-03-28 17:49:00,
2013-03-28 13:05:00,67.4,56.0,30.09,South,181,8.0,17.0,67,0.00,,,0.00,weatherlink.com 1.10,2013-03-28 18:05:00,
2013-03-28 13:20:00,67.4,56.0,30.08,SSW,201,9.0,19.0,68,0.00,,,0.00,weatherlink.com 1.10,2013-03-28 18:20:00,
2013-03-28 13:35:00,67.5,57.0,30.08,South,181,7.0,15.0,68,0.00,,,0.00,weatherlink.com 1.10,2013-03-28 18:35:00,
2013-03-28 13:50:00,67.5,57.0,30.07,South,171,8.0,15.0,69,0.00,,,0.00,weatherlink.com 1.10,2013-03-28 18:50:00,
2013-03-28 14:05:00,68.0,57.0,30.07,South,179,8.0,14.0,67,0.00,,,0.00,weatherlink.com 1.10,2013-03-28 19:05:00,
2013-03-28 14:20:00,69.0,57.0,30.06,South,180,12.0,18.0,65,0.00,,,0.00,weatherlink.com 1.10,2013-03-28 19:20:00,
2013-03-28 14:35:00,69.7,57.0,30.05,South,180,8.0,16.0,64,0.00,,,0.00,weatherlink.com 1.10,2013-03-28 19:35:00,
2013-03-28 14:49:00,70.6,57.0,30.05,SSE,150,10.0,17.0,62,0.00,,,0.00,weatherlink.com 1.10,2013-03-28 19:49:00,
2013-03-28 15:05:00,70.9,56.0,30.04,South,184,6.0,18.0,60,0.00,,,0.00,weatherlink.com 1.10,2013-03-28 20:05:00,
2013-03-28 15:20:00,71.0,56.0,30.04,SSW,194,7.0,15.0,60,0.00,,,0.00,weatherlink.com 1.10,2013-03-28 20:20:00,
2013-03-28 15:35:00,71.0,57.0,30.03,South,169,9.0,15.0,61,0.00,,,0.00,weatherlink.com 1.10,2013-03-28 20:35:00,
2013-03-28 15:50:00,70.8,57.0,30.03,SSW,193,9.0,13.0,61,0.00,,,0.00,weatherlink.com 1.10,2013-03-28 20:50:00,
2013-03-28 16:05:00,70.5,56.0,30.03,South,178,14.0,16.0,60,0.00,,,0.00,weatherlink.com 1.10,2013-03-28 21:05:00,
2013-03-28 16:20:00,70.4,57.0,30.02,SSW,194,7.0,15.0,62,0.00,,,0.00,weatherlink.com 1.10,2013-03-28 21:20:00,
2013-03-28 16:35:00,71.0,57.0,30.02,SSW,198,8.0,16.0,61,0.00,,,0.00,weatherlink.com 1.10,2013-03-28 21:35:00,
2013-03-28 16:50:00,71.2,56.0,30.03,SSW,196,7.0,16.0,60,0.00,,,0.00,weatherlink.com 1.10,2013-03-28 21:50:00,
2013-03-28 17:05:00,71.0,57.0,30.03,SW,219,9.0,13.0,61,0.00,,,0.00,weatherlink.com 1.10,2013-03-28 22:05:00,
2013-03-28 17:20:00,70.6,57.0,30.03,SSW,193,8.0,15.0,62,0.00,,,0.00,weatherlink.com 1.10,2013-03-28 22:20:00,
2013-03-28 17:35:00,70.4,57.0,30.02,SSW,198,8.0,15.0,63,0.00,,,0.00,weatherlink.com 1.10,2013-03-28 22:35:00,
2013-03-28 17:50:00,70.1,57.0,30.03,SSE,164,10.0,14.0,64,0.00,,,0.00,weatherlink.com 1.10,2013-03-28 22:50:00,
2013-03-28 18:05:00,70.0,57.0,30.03,SSE,168,7.0,17.0,64,0.00,,,0.00,weatherlink.com 1.10,2013-03-28 23:05:00,
2013-03-28 18:20:00,69.8,58.0,30.03,SSW,207,9.0,18.0,66,0.00,,,0.00,weatherlink.com 1.10,2013-03-28 23:20:00,
2013-03-28 18:35:00,68.6,58.0,30.03,SSE,164,13.0,16.0,68,0.00,,,0.00,weatherlink.com 1.10,2013-03-28 23:35:00,
2013-03-28 18:50:00,68.0,57.0,30.03,SSE,167,9.0,16.0,69,0.00,,,0.00,weatherlink.com 1.10,2013-03-28 23:50:00,
2013-03-28 19:05:00,67.6,58.0,30.04,South,178,9.0,16.0,71,0.00,,,0.00,weatherlink.com 1.10,2013-03-29 00:05:00,
2013-03-28 19:20:00,67.0,57.0,30.04,South,184,7.0,16.0,71,0.00,,,0.00,weatherlink.com 1.10,2013-03-29 00:20:00,
2013-03-28 19:35:00,66.5,58.0,30.04,SSE,167,6.0,13.0,73,0.00,,,0.00,weatherlink.com 1.10,2013-03-29 00:35:00,
2013-03-28 19:50:00,65.7,57.0,30.05,South,182,8.0,12.0,74,0.00,,,0.00,weatherlink.com 1.10,2013-03-29 00:50:00,
2013-03-28 20:05:00,65.5,58.0,30.05,SSE,168,5.0,10.0,76,0.00,,,0.00,weatherlink.com 1.10,2013-03-29 01:05:00,
2013-03-28 20:20:00,65.4,57.0,30.05,SSW,192,3.0,11.0,75,0.00,,,0.00,weatherlink.com 1.10,2013-03-29 01:20:00,
2013-03-28 20:35:00,65.1,57.0,30.05,South,184,5.0,9.0,76,0.00,,,0.00,weatherlink.com 1.10,2013-03-29 01:35:00,
2013-03-28 20:50:00,64.8,57.0,30.05,South,169,5.0,14.0,76,0.00,,,0.00,weatherlink.com 1.10,2013-03-29 01:50:00,
2013-03-28 21:05:00,65.0,57.0,30.05,South,169,7.0,11.0,76,0.00,,,0.00,weatherlink.com 1.10,2013-03-29 02:05:00,
2013-03-28 21:20:00,64.5,57.0,30.04,South,179,10.0,14.0,77,0.00,,,0.00,weatherlink.com 1.10,2013-03-29 02:20:00,
2013-03-28 21:35:00,63.8,57.0,30.05,SSE,165,4.0,9.0,78,0.00,,,0.00,weatherlink.com 1.10,2013-03-29 02:35:00,
2013-03-28 21:50:00,63.5,57.0,30.05,SSE,161,2.0,10.0,79,0.00,,,0.00,weatherlink.com 1.10,2013-03-29 02:50:00,
2013-03-28 22:05:00,63.1,57.0,30.05,South,170,1.0,8.0,79,0.00,,,0.00,weatherlink.com 1.10,2013-03-29 03:05:00,
2013-03-28 22:20:00,62.9,57.0,30.06,South,186,6.0,8.0,80,0.00,,,0.00,weatherlink.com 1.10,2013-03-29 03:20:00,
2013-03-28 22:35:00,62.9,56.0,30.06,South,188,4.0,8.0,79,0.00,,,0.00,weatherlink.com 1.10,2013-03-29 03:35:00,
2013-03-28 22:50:00,63.0,56.0,30.06,South,179,5.0,10.0,79,0.00,,,0.00,weatherlink.com 1.10,2013-03-29 03:50:00,
2013-03-28 23:05:00,63.0,56.0,30.06,South,188,3.0,8.0,78,0.00,,,0.00,weatherlink.com 1.10,2013-03-29 04:05:00,
2013-03-28 23:20:00,63.3,56.0,30.07,South,177,6.0,10.0,78,0.00,,,0.00,weatherlink.com 1.10,2013-03-29 04:20:00,
2013-03-28 23:35:00,63.1,56.0,30.07,South,186,5.0,10.0,78,0.00,,,0.00,weatherlink.com 1.10,2013-03-29 04:35:00,
2013-03-28 23:50:00,62.7,56.0,30.06,South,183,9.0,9.0,79,0.00,,,0.00,weatherlink.com 1.10,2013-03-29 04:50:00,